Time;durP1;ratioP1;P1;durP2;ratioP2;P2;SDS_P1;SDS_P2;PMS_P1;PMS_P2;Temp;Humidity;BMP_temperature;BMP_pressure;BME280_temperature;BME280_humidity;BME280_pressure;Samples;Min_cycle;Max_cycle;Signal;HPM_P1;HPM_P2
2022/11/28 00:01:20;;;;;;;36.60;18.95;;;;;;;6.72;100.00;100825.63;5012060;28;20551;-71
2022/11/28 00:03:45;;;;;;;35.47;19.23;;;;;;;6.70;100.00;100837.78;5019715;28;20022;-69
2022/11/28 00:06:10;;;;;;;35.03;19.02;;;;;;;6.70;100.00;100835.16;5016261;28;20037;-70
2022/11/28 00:08:36;;;;;;;39.17;18.70;;;;;;;6.70;100.00;100822.09;5012047;28;20061;-70
2022/11/28 00:11:03;;;;;;;36.97;19.23;;;;;;;6.68;100.00;100821.13;5012820;28;20029;-71
2022/11/28 00:13:28;;;;;;;36.72;19.38;;;;;;;6.71;100.00;100820.34;5014882;28;20028;-71
2022/11/28 00:15:57;;;;;;;39.38;18.35;;;;;;;6.75;100.00;100810.06;5018169;28;20593;-70
2022/11/28 00:18:22;;;;;;;35.70;18.65;;;;;;;6.77;100.00;100811.81;5022809;28;20417;-71
2022/11/28 00:20:48;;;;;;;33.45;19.02;;;;;;;6.74;100.00;100800.41;5024202;28;20094;-71
2022/11/28 00:23:13;;;;;;;38.60;19.80;;;;;;;6.72;100.00;100802.09;5012418;28;20053;-71
2022/11/28 00:25:38;;;;;;;30.55;17.02;;;;;;;6.75;100.00;100806.53;5022015;28;20028;-69
2022/11/28 00:28:04;;;;;;;35.88;18.85;;;;;;;6.73;100.00;100801.25;5020884;28;20064;-70
2022/11/28 00:30:29;;;;;;;38.13;19.10;;;;;;;6.75;100.00;100810.06;5017878;28;20031;-70
2022/11/28 00:32:54;;;;;;;37.10;19.17;;;;;;;6.79;100.00;100820.59;5016428;28;20425;-70
2022/11/28 00:35:20;;;;;;;37.65;18.88;;;;;;;6.81;100.00;100818.91;5019921;28;20021;-70
2022/11/28 00:37:45;;;;;;;36.80;19.48;;;;;;;6.81;100.00;100813.66;5018616;28;20026;-70
2022/11/28 00:40:10;;;;;;;35.95;18.02;;;;;;;6.83;100.00;100810.25;5021751;28;20083;-71
2022/11/28 00:42:35;;;;;;;30.17;16.02;;;;;;;6.86;100.00;100812.09;5027206;28;20033;-71
2022/11/28 00:45:01;;;;;;;29.88;17.20;;;;;;;6.87;100.00;100808.66;5012426;28;20025;-71
2022/11/28 00:47:26;;;;;;;32.58;16.48;;;;;;;6.90;100.00;100799.19;5018041;28;20480;-70
2022/11/28 00:49:51;;;;;;;26.40;14.48;;;;;;;6.98;100.00;100802.00;5025797;28;20108;-71
2022/11/28 00:52:17;;;;;;;28.38;14.55;;;;;;;6.98;100.00;100796.78;5015773;28;20045;-71
2022/11/28 00:54:42;;;;;;;25.20;13.75;;;;;;;6.99;100.00;100795.94;5015445;28;20060;-70
2022/11/28 00:57:07;;;;;;;22.13;13.15;;;;;;;7.03;100.00;100803.03;5013425;28;20438;-69
2022/11/28 00:59:32;;;;;;;29.25;15.05;;;;;;;7.05;100.00;100787.38;5021295;28;20054;-69
2022/11/28 01:01:59;;;;;;;24.67;12.77;;;;;;;7.12;100.00;100788.47;5020852;28;20104;-72
2022/11/28 01:04:26;;;;;;;26.42;15.00;;;;;;;7.08;100.00;100777.91;5016438;28;20065;-70
2022/11/28 01:06:52;;;;;;;27.75;14.35;;;;;;;7.09;100.00;100781.41;5029226;28;20030;-69
2022/11/28 01:09:22;;;;;;;27.02;13.90;;;;;;;7.11;100.00;100786.66;5030162;28;20032;-71
2022/11/28 01:11:49;;;;;;;25.63;13.82;;;;;;;7.15;100.00;100775.44;5021414;28;20453;-70
2022/11/28 01:14:17;;;;;;;29.85;15.10;;;;;;;7.14;100.00;100771.09;5021322;28;20022;-71
2022/11/28 01:16:43;;;;;;;29.65;15.55;;;;;;;7.20;100.00;100771.25;5011565;28;20033;-71
2022/11/28 01:19:08;;;;;;;28.55;13.27;;;;;;;7.23;100.00;100771.31;5026264;28;20446;-70
2022/11/28 01:21:34;;;;;;;25.75;14.65;;;;;;;7.23;100.00;100771.31;5029111;28;20056;-70
2022/11/28 01:23:59;;;;;;;29.75;15.30;;;;;;;7.21;100.00;100773.03;5011577;28;20058;-70
2022/11/28 01:26:27;;;;;;;30.35;14.27;;;;;;;7.23;100.00;100771.31;5016481;28;20029;-72
2022/11/28 01:28:52;;;;;;;28.60;14.82;;;;;;;7.24;100.00;100774.00;5020637;28;20037;-70
2022/11/28 01:31:24;;;;;;;31.95;16.13;;;;;;;7.27;100.00;100768.00;5013950;28;20473;-70
2022/11/28 01:33:49;;;;;;;30.08;16.20;;;;;;;7.29;100.00;100768.91;5012293;28;20041;-71
2022/11/28 01:36:16;;;;;;;35.63;16.33;;;;;;;7.29;100.00;100763.66;5016673;28;20034;-70
2022/11/28 01:38:42;;;;;;;29.75;14.80;;;;;;;7.27;100.00;100762.75;5031312;28;20385;-70
2022/11/28 01:41:08;;;;;;;27.02;14.52;;;;;;;7.33;100.00;100762.91;5027263;28;20026;-69
2022/11/28 01:43:35;;;;;;;32.85;15.20;;;;;;;7.33;100.00;100756.81;5022289;28;20615;-71
2022/11/28 01:46:02;;;;;;;33.72;17.05;;;;;;;7.35;100.00;100763.84;5012963;28;20057;-70
2022/11/28 01:48:33;;;;;;;34.83;16.40;;;;;;;7.36;100.00;100778.69;5021205;28;20036;-69
2022/11/28 01:51:01;;;;;;;29.02;15.63;;;;;;;7.39;100.00;100764.81;5032869;28;20029;-70
2022/11/28 01:53:33;;;;;;;30.67;15.82;;;;;;;7.41;100.00;100755.28;5021129;28;20026;-71
2022/11/28 01:56:08;;;;;;;32.05;14.95;;;;;;;7.41;100.00;100753.53;5014823;28;20026;-70
2022/11/28 01:58:37;;;;;;;39.22;16.92;;;;;;;7.41;100.00;100750.91;5024003;28;21167;-71
2022/11/28 02:01:04;;;;;;;31.92;15.88;;;;;;;7.46;100.00;100755.41;5020053;28;20050;-71
2022/11/28 02:03:37;;;;;;;32.63;16.35;;;;;;;7.47;100.00;100754.56;5015781;28;20030;-71
2022/11/28 02:06:02;;;;;;;36.72;16.17;;;;;;;7.50;100.00;100744.16;5014548;28;20088;-70
2022/11/28 02:08:32;;;;;;;34.33;17.83;;;;;;;7.50;100.00;100745.06;5024379;28;20034;-71
2022/11/28 02:11:14;;;;;;;35.30;18.15;;;;;;;7.53;100.00;100744.28;5014685;28;20036;-71
2022/11/28 02:14:02;;;;;;;39.33;20.77;;;;;;;7.56;100.00;100739.09;5015820;28;20049;-71
2022/11/28 02:16:40;;;;;;;44.65;20.40;;;;;;;7.58;100.00;100745.25;5019004;28;20030;-71
2022/11/28 02:19:37;;;;;;;38.08;19.50;;;;;;;7.62;100.00;100752.34;5019588;28;20022;-72
2022/11/28 02:22:41;;;;;;;39.25;19.75;;;;;;;7.66;100.00;100740.22;5012016;28;20497;-70
2022/11/28 02:25:10;;;;;;;44.17;19.50;;;;;;;7.66;100.00;100738.50;5023922;28;20049;-70
2022/11/28 02:27:57;;;;;;;38.88;18.02;;;;;;;7.69;100.00;100748.16;5014650;28;20048;-69
2022/11/28 02:30:43;;;;;;;39.95;19.17;;;;;;;7.70;100.00;100748.19;5017622;28;20091;-71
2022/11/28 02:33:22;;;;;;;38.90;19.38;;;;;;;7.76;100.00;100735.28;5020507;28;20026;-71
2022/11/28 02:36:14;;;;;;;37.92;18.90;;;;;;;7.77;100.00;100744.00;5017269;28;20034;-69
2022/11/28 02:39:11;;;;;;;40.40;18.77;;;;;;;7.81;100.00;100742.38;5016719;28;20025;-71
2022/11/28 02:42:08;;;;;;;42.13;19.08;;;;;;;7.84;100.00;100742.44;5030122;28;20116;-71
2022/11/28 02:44:43;;;;;;;36.58;17.85;;;;;;;7.84;100.00;100742.44;5014195;28;20084;-70
2022/11/28 02:47:20;;;;;;;35.95;17.17;;;;;;;7.83;100.00;100738.06;5015897;28;20470;-70
2022/11/28 02:49:59;;;;;;;30.70;17.63;;;;;;;7.85;100.00;100741.59;5017871;28;20025;-70
2022/11/28 02:52:35;;;;;;;31.60;17.33;;;;;;;7.86;100.00;100736.41;5018309;28;20033;-70
2022/11/28 02:55:01;;;;;;;36.90;18.17;;;;;;;7.86;100.00;100735.53;5032299;28;20029;-70
2022/11/28 02:57:37;;;;;;;31.55;16.73;;;;;;;7.90;100.00;100734.75;5030002;28;20025;-72
2022/11/28 03:00:28;;;;;;;31.63;15.38;;;;;;;7.89;100.00;100732.97;5030898;28;20103;-71
2022/11/28 03:03:01;;;;;;;33.50;15.68;;;;;;;7.89;100.00;100725.13;5023909;28;20030;-69
2022/11/28 03:05:50;;;;;;;31.40;15.65;;;;;;;7.90;100.00;100734.75;5016584;28;20030;-70
2022/11/28 03:08:24;;;;;;;27.15;15.85;;;;;;;7.93;100.00;100735.72;5013299;28;20504;-70
2022/11/28 03:11:25;;;;;;;29.55;16.70;;;;;;;7.94;100.00;100733.97;5017062;28;20021;-71
2022/11/28 03:14:01;;;;;;;28.25;15.93;;;;;;;7.93;100.00;100735.72;5013387;28;20096;-70
2022/11/28 03:16:34;;;;;;;28.65;15.80;;;;;;;7.96;100.00;100739.25;4998452;28;20044;-70
2022/11/28 03:19:09;;;;;;;34.28;16.90;;;;;;;7.98;100.00;100738.47;5033345;28;20056;-71
2022/11/28 03:21:46;;;;;;;27.92;16.17;;;;;;;7.98;100.00;100733.22;5015353;28;20030;-70
2022/11/28 03:24:43;;;;;;;27.17;16.33;;;;;;;7.97;100.00;100731.44;5013040;28;20033;-70
2022/11/28 03:27:27;;;;;;;24.92;14.35;;;;;;;8.00;100.00;100730.63;5012623;28;20037;-70
2022/11/28 03:30:02;;;;;;;28.77;15.23;;;;;;;8.00;100.00;100728.88;5013988;28;20406;-71
2022/11/28 03:32:31;;;;;;;28.40;14.93;;;;;;;7.97;100.00;100730.56;5012983;28;20041;-70
2022/11/28 03:35:03;;;;;;;30.25;16.48;;;;;;;7.95;100.00;100730.53;5013622;28;20029;-70
2022/11/28 03:37:32;;;;;;;32.67;16.20;;;;;;;7.93;100.00;100738.34;5026424;28;20083;-70
2022/11/28 03:40:00;;;;;;;30.38;16.27;;;;;;;7.94;100.00;100747.97;5013099;28;20061;-70
2022/11/28 03:42:29;;;;;;;29.38;15.98;;;;;;;7.96;100.00;100742.75;5014558;28;20026;-71
2022/11/28 03:45:00;;;;;;;30.80;15.60;;;;;;;7.96;100.00;100740.13;5013249;28;20586;-71
2022/11/28 03:47:29;;;;;;;28.80;16.10;;;;;;;7.90;100.00;100735.63;5015208;28;20038;-72
2022/11/28 03:50:01;;;;;;;28.77;15.43;;;;;;;7.92;100.00;100743.53;5014067;28;20080;-71
2022/11/28 03:52:34;;;;;;;34.08;16.50;;;;;;;7.93;100.00;100734.81;5012916;28;20038;-71
2022/11/28 03:55:18;;;;;;;;;;;;;;;7.94;100.00;100731.38;5013700;28;20113;-70
2022/11/28 03:57:57;;;;;;;28.10;14.50;;;;;;;7.84;100.00;100724.09;5013847;28;20415;-70
2022/11/28 04:00:24;;;;;;;28.83;15.10;;;;;;;7.85;100.00;100721.53;5022075;28;20054;-70
2022/11/28 04:03:19;;;;;;;34.08;15.75;;;;;;;7.84;100.00;100718.88;5013877;28;20044;-71
2022/11/28 04:06:03;;;;;;;31.20;15.70;;;;;;;7.80;100.00;100717.94;5012197;28;20030;-71
2022/11/28 04:08:35;;;;;;;34.35;16.33;;;;;;;7.87;100.00;100724.22;5029869;28;20105;-70
2022/11/28 04:11:03;;;;;;;38.00;17.83;;;;;;;7.84;100.00;100729.34;5026695;28;20022;-71
2022/11/28 04:13:36;;;;;;;42.95;18.13;;;;;;;7.86;100.00;100730.28;5027032;28;20033;-71
2022/11/28 04:16:07;;;;;;;31.27;16.10;;;;;;;7.79;100.00;100725.75;5014103;28;20021;-70
2022/11/28 04:18:55;;;;;;;39.35;16.73;;;;;;;7.75;100.00;100722.16;5013091;28;20053;-71
2022/11/28 04:21:54;;;;;;;40.33;18.20;;;;;;;7.75;100.00;100720.41;5014987;28;20034;-71
2022/11/28 04:24:27;;;;;;;37.25;17.48;;;;;;;7.82;100.00;100731.94;5012865;28;20119;-70
2022/11/28 04:26:58;;;;;;;35.50;17.58;;;;;;;7.79;100.00;100729.25;5018697;28;20490;-70
2022/11/28 04:29:25;;;;;;;38.13;16.45;;;;;;;7.81;100.00;100729.28;5012753;28;20083;-70
2022/11/28 04:31:55;;;;;;;35.95;17.33;;;;;;;7.78;100.00;100723.97;5013197;28;20369;-71
2022/11/28 04:34:23;;;;;;;35.40;17.27;;;;;;;7.76;100.00;100732.66;5011498;28;20026;-70
2022/11/28 04:36:52;;;;;;;38.97;17.90;;;;;;;7.77;100.00;100728.28;5022068;28;20040;-70
2022/11/28 04:39:22;;;;;;;41.17;19.25;;;;;;;7.72;100.00;100736.03;5031775;28;20026;-71
2022/11/28 04:41:52;;;;;;;41.17;19.20;;;;;;;7.74;100.00;100734.34;5020609;28;20026;-71
2022/11/28 04:44:21;;;;;;;37.17;17.95;;;;;;;7.71;100.00;100734.28;5011817;28;20113;-70
2022/11/28 04:46:51;;;;;;;37.20;17.85;;;;;;;7.72;100.00;100736.03;5019098;28;20324;-70
2022/11/28 04:49:17;;;;;;;42.60;19.48;;;;;;;7.71;100.00;100743.88;5017950;28;20029;-70
2022/11/28 04:52:01;;;;;;;39.60;18.50;;;;;;;7.73;100.00;100744.78;5011725;28;20080;-71
2022/11/28 04:54:51;;;;;;;42.75;19.17;;;;;;;7.71;100.00;100738.63;5011827;28;20513;-71
2022/11/28 04:57:40;;;;;;;45.00;20.48;;;;;;;7.73;100.00;100740.44;5023318;28;20469;-70
2022/11/28 05:00:15;;;;;;;42.00;18.13;;;;;;;7.73;100.00;100735.22;5011893;28;20042;-71
2022/11/28 05:02:42;;;;;;;45.22;19.67;;;;;;;7.73;100.00;100748.31;5022824;28;20393;-70
2022/11/28 05:05:14;;;;;;;40.35;19.52;;;;;;;7.73;100.00;100748.31;5013857;28;20029;-70
2022/11/28 05:07:40;;;;;;;48.95;20.77;;;;;;;7.71;100.00;100742.13;5011641;28;20061;-70
2022/11/28 05:10:06;;;;;;;54.00;21.50;;;;;;;7.70;100.00;100748.19;5026142;28;20057;-71
2022/11/28 05:12:32;;;;;;;45.58;20.70;;;;;;;7.72;100.00;100746.53;5018370;28;20029;-71
2022/11/28 05:14:57;;;;;;;47.53;20.30;;;;;;;7.72;100.00;100745.66;5018876;28;20026;-70
2022/11/28 05:17:22;;;;;;;52.80;21.35;;;;;;;7.73;100.00;100750.94;5011913;28;20022;-70
2022/11/28 05:19:48;;;;;;;44.92;20.77;;;;;;;7.73;100.00;100752.63;5023418;28;20030;-71
2022/11/28 05:22:13;;;;;;;53.08;22.38;;;;;;;7.73;100.00;100758.78;5014644;28;20037;-73
2022/11/28 05:24:38;;;;;;;54.25;22.95;;;;;;;7.74;100.00;100754.41;5014601;28;20034;-71
2022/11/28 05:27:04;;;;;;;53.30;22.10;;;;;;;7.73;100.00;100761.41;5018897;28;20474;-71
2022/11/28 05:29:29;;;;;;;50.30;22.73;;;;;;;7.73;100.00;100769.25;5014996;28;20053;-70
2022/11/28 05:31:55;;;;;;;57.03;22.23;;;;;;;7.72;100.00;100762.25;5015157;28;20129;-69
2022/11/28 05:34:20;;;;;;;56.10;22.92;;;;;;;7.74;100.00;100765.78;5029238;28;20033;-71
2022/11/28 05:36:45;;;;;;;58.65;23.75;;;;;;;7.74;100.00;100760.53;5025542;28;20029;-71
2022/11/28 05:39:11;;;;;;;55.85;22.50;;;;;;;7.74;100.00;100757.03;5035273;28;20022;-71
2022/11/28 05:41:36;;;;;;;59.00;24.02;;;;;;;7.74;100.00;100763.16;5026212;28;20051;-71
2022/11/28 05:44:01;;;;;;;64.50;24.13;;;;;;;7.73;100.00;100769.25;5014633;28;20478;-72
2022/11/28 05:46:28;;;;;;;62.38;24.77;;;;;;;7.76;100.00;100776.31;5015324;28;20044;-71
2022/11/28 05:48:54;;;;;;;66.50;24.05;;;;;;;7.78;100.00;100771.13;5036470;28;20044;-71
2022/11/28 05:51:19;;;;;;;68.32;23.55;;;;;;;7.77;100.00;100770.22;5023922;28;20034;-70
2022/11/28 05:53:44;;;;;;;73.82;23.88;;;;;;;7.74;100.00;100771.00;5019266;28;20033;-71
2022/11/28 05:56:13;;;;;;;67.80;24.35;;;;;;;7.75;100.00;100772.78;5014283;28;20057;-71
2022/11/28 05:58:39;;;;;;;76.13;26.17;;;;;;;7.74;100.00;100772.75;5025159;28;20033;-70
2022/11/28 06:01:20;;;;;;;65.85;24.80;;;;;;;7.76;100.00;100768.47;5028135;28;20095;-71
2022/11/28 06:03:46;;;;;;;69.38;25.75;;;;;;;7.80;100.00;100769.41;5015457;28;20032;-70
2022/11/28 06:06:12;;;;;;;68.32;25.75;;;;;;;7.75;100.00;100778.03;5020504;28;20393;-71
2022/11/28 06:08:38;;;;;;;70.85;25.85;;;;;;;7.79;100.00;100767.66;5027754;28;20559;-70
2022/11/28 06:11:04;;;;;;;73.15;25.55;;;;;;;7.75;100.00;100782.38;5020205;28;20033;-71
2022/11/28 06:13:29;;;;;;;72.90;27.73;;;;;;;7.76;100.00;100778.94;5030333;28;20489;-70
2022/11/28 06:15:55;;;;;;;73.35;26.52;;;;;;;7.76;100.00;100774.56;5022455;28;20503;-68
2022/11/28 06:18:20;;;;;;;73.10;26.20;;;;;;;7.76;100.00;100769.34;5024229;28;20025;-71
2022/11/28 06:20:45;;;;;;;78.40;24.65;;;;;;;7.76;100.00;100763.22;5022705;28;20033;-70
2022/11/28 06:23:11;;;;;;;90.45;27.27;;;;;;;7.75;100.00;100759.69;5028926;28;20101;-69
2022/11/28 06:25:36;;;;;;;75.20;26.10;;;;;;;7.76;100.00;100765.84;5019172;28;20032;-71
2022/11/28 06:28:01;;;;;;;85.68;26.98;;;;;;;7.75;100.00;100772.78;5030611;28;20021;-70
2022/11/28 06:30:27;;;;;;;80.45;27.73;;;;;;;7.74;100.00;100776.25;5021332;28;20053;-71
2022/11/28 06:32:52;;;;;;;91.88;29.30;;;;;;;7.74;100.00;100776.25;5033092;28;20402;-71
2022/11/28 06:35:17;;;;;;;74.03;25.75;;;;;;;7.73;100.00;100779.72;5020583;28;20044;-70
2022/11/28 06:37:43;;;;;;;92.95;28.50;;;;;;;7.75;100.00;100783.25;5014542;28;20034;-70
2022/11/28 06:40:08;;;;;;;87.38;27.38;;;;;;;7.76;100.00;100787.66;5023258;28;20523;-70
2022/11/28 06:42:35;;;;;;;85.88;28.30;;;;;;;7.75;100.00;100792.88;5020561;28;20128;-69
2022/11/28 06:45:01;;;;;;;100.40;29.88;;;;;;;7.77;100.00;100791.16;5028704;28;20029;-71
2022/11/28 06:47:26;;;;;;;94.70;29.75;;;;;;;7.81;100.00;100792.16;5027746;28;20038;-70
2022/11/28 06:49:51;;;;;;;102.30;29.30;;;;;;;7.78;100.00;100792.06;5028058;28;20401;-71
2022/11/28 06:52:16;;;;;;;96.45;29.40;;;;;;;7.79;100.00;100789.50;5029599;28;20025;-70
2022/11/28 06:54:43;;;;;;;92.55;30.05;;;;;;;7.76;100.00;100790.28;5013346;28;20029;-70
2022/11/28 06:57:09;;;;;;;109.88;31.70;;;;;;;7.76;100.00;100789.41;5017911;28;20359;-70
2022/11/28 06:59:35;;;;;;;121.35;33.33;;;;;;;7.78;100.00;100792.06;5038454;28;20478;-71
2022/11/28 07:02:02;;;;;;;106.53;30.98;;;;;;;7.77;100.00;100791.16;5033940;28;20028;-69
2022/11/28 07:04:27;;;;;;;122.93;32.60;;;;;;;7.78;100.00;100789.44;5041341;28;20112;-71
2022/11/28 07:06:52;;;;;;;117.47;32.78;;;;;;;7.79;100.00;100796.47;5043333;28;20112;-70
2022/11/28 07:09:18;;;;;;;118.50;32.13;;;;;;;7.81;100.00;100794.75;5036778;28;20467;-70
2022/11/28 07:11:43;;;;;;;114.68;32.13;;;;;;;7.83;100.00;100806.19;5041629;28;20033;-69
2022/11/28 07:14:09;;;;;;;119.18;32.00;;;;;;;7.81;100.00;100805.25;5038458;28;20021;-68
2022/11/28 07:16:35;;;;;;;124.80;32.92;;;;;;;7.85;100.00;100814.97;5044554;28;20396;-70
2022/11/28 07:19:01;;;;;;;120.82;32.83;;;;;;;7.88;100.00;100809.78;5041992;28;20066;-75
2022/11/28 07:21:28;;;;;;;133.77;32.40;;;;;;;7.88;100.00;100810.69;5027130;28;20025;-69
2022/11/28 07:23:53;;;;;;;125.50;32.15;;;;;;;7.88;100.00;100809.78;5027680;28;20095;-69
2022/11/28 07:26:20;;;;;;;125.93;31.40;;;;;;;7.89;100.00;100814.19;5026159;28;20065;-69
2022/11/28 07:28:46;;;;;;;132.07;35.28;;;;;;;7.88;100.00;100810.69;5034017;28;20036;-70
2022/11/28 07:31:20;;;;;;;125.57;30.67;;;;;;;7.88;100.00;100809.78;5020234;28;20105;-70
2022/11/28 07:33:48;;;;;;;121.05;30.08;;;;;;;7.90;100.00;100811.59;5017096;28;20442;-70
2022/11/28 07:36:19;;;;;;;123.03;31.25;;;;;;;7.93;100.00;100823.91;5032482;28;20469;-69
2022/11/28 07:38:52;;;;;;;120.43;32.05;;;;;;;7.95;100.00;100827.47;5027451;28;20029;-69
2022/11/28 07:41:18;;;;;;;;;;;;;;;8.01;100.00;100825.00;5025924;28;20029;-71
2022/11/28 07:43:45;;;;;;;135.80;32.60;;;;;;;7.98;100.00;100817.06;5014830;28;20401;-70
2022/11/28 07:46:14;;;;;;;133.13;32.80;;;;;;;8.00;100.00;100820.59;5012309;28;20076;-71
2022/11/28 07:48:40;;;;;;;134.23;30.17;;;;;;;8.06;100.00;100823.41;5012625;28;20033;-69
2022/11/28 07:51:07;;;;;;;138.82;32.10;;;;;;;8.03;100.00;100820.69;5012837;28;20033;-69
2022/11/28 07:53:33;;;;;;;143.48;33.95;;;;;;;8.02;100.00;100818.03;5012640;28;20022;-70
2022/11/28 07:56:08;;;;;;;142.13;33.85;;;;;;;8.05;100.00;100808.50;5013135;28;20037;-70
2022/11/28 07:58:35;;;;;;;150.52;33.50;;;;;;;8.05;100.00;100813.75;5012321;28;20486;-70
2022/11/28 08:01:09;;;;;;;152.32;31.40;;;;;;;8.07;100.00;100819.94;5022005;28;20080;-69
2022/11/28 08:03:35;;;;;;;149.55;32.72;;;;;;;8.12;100.00;100830.53;5040189;28;20035;-70
2022/11/28 08:06:01;;;;;;;147.05;33.42;;;;;;;8.14;100.00;100822.69;5033912;28;20025;-72
2022/11/28 08:08:26;;;;;;;147.13;33.80;;;;;;;8.12;100.00;100835.75;5037492;28;20037;-69
2022/11/28 08:10:57;;;;;;;146.95;34.10;;;;;;;8.13;100.00;100834.06;5038206;28;20408;-70
2022/11/28 08:13:22;;;;;;;151.25;33.67;;;;;;;8.16;100.00;100842.88;5036756;28;20029;-70
2022/11/28 08:15:47;;;;;;;153.85;35.13;;;;;;;8.16;100.00;100842.00;5035716;28;20029;-71
2022/11/28 08:18:13;;;;;;;142.00;31.13;;;;;;;8.18;100.00;100835.03;5032457;28;20139;-71
2022/11/28 08:20:38;;;;;;;149.38;34.35;;;;;;;8.18;100.00;100835.03;5036615;28;20017;-70
2022/11/28 08:23:03;;;;;;;143.80;32.53;;;;;;;8.28;100.00;100831.81;5038002;28;20029;-71
2022/11/28 08:25:29;;;;;;;160.30;32.92;;;;;;;8.23;100.00;100836.03;5036252;28;20040;-71
2022/11/28 08:27:54;;;;;;;136.23;31.23;;;;;;;8.24;100.00;100836.09;5037002;28;20025;-70
2022/11/28 08:30:19;;;;;;;165.68;36.53;;;;;;;8.28;100.00;100834.44;5036513;28;20037;-70
2022/11/28 08:32:44;;;;;;;170.95;34.13;;;;;;;8.28;100.00;100827.44;5023118;28;20028;-70
2022/11/28 08:35:10;;;;;;;184.63;37.25;;;;;;;8.30;100.00;100829.22;5011530;28;20405;-70
2022/11/28 08:37:35;;;;;;;160.82;36.28;;;;;;;8.35;100.00;100836.34;5024883;28;20017;-70
2022/11/28 08:40:00;;;;;;;181.63;36.72;;;;;;;8.33;100.00;100835.44;5031931;28;20021;-70
2022/11/28 08:42:27;;;;;;;172.75;37.38;;;;;;;8.36;100.00;100819.78;5017708;28;20034;-70
2022/11/28 08:44:52;;;;;;;176.90;35.35;;;;;;;8.41;100.00;100823.41;5012152;28;20022;-70
2022/11/28 08:47:21;;;;;;;185.43;37.20;;;;;;;8.38;100.00;100823.34;5011802;28;20037;-70
2022/11/28 08:49:48;;;;;;;182.55;36.88;;;;;;;8.42;100.00;100822.56;5012308;28;20052;-71
2022/11/28 08:52:16;;;;;;;179.70;35.80;;;;;;;8.43;100.00;100832.19;5012005;28;20033;-71
2022/11/28 08:54:45;;;;;;;167.70;35.25;;;;;;;8.46;100.00;100835.78;5012064;28;20022;-70
2022/11/28 08:57:13;;;;;;;173.57;32.92;;;;;;;8.50;100.00;100845.50;5011926;28;20022;-69
2022/11/28 08:59:44;;;;;;;160.43;36.58;;;;;;;8.51;100.00;100840.28;5012125;28;20069;-71
2022/11/28 09:02:12;;;;;;;169.60;35.75;;;;;;;8.55;100.00;100843.91;5012864;28;20040;-70
2022/11/28 09:04:40;;;;;;;174.48;35.58;;;;;;;8.59;100.00;100843.13;5011662;28;20021;-69
2022/11/28 09:07:08;;;;;;;169.45;36.03;;;;;;;8.58;100.00;100842.22;5028986;28;20477;-69
2022/11/28 09:09:39;;;;;;;186.80;35.20;;;;;;;8.60;100.00;100845.78;5031044;28;20064;-69
2022/11/28 09:12:08;;;;;;;166.68;34.85;;;;;;;8.62;100.00;100843.19;5026236;28;20033;-70
2022/11/28 09:14:36;;;;;;;165.48;35.85;;;;;;;8.65;100.00;100837.13;5031416;28;20079;-69
2022/11/28 09:17:04;;;;;;;175.48;35.53;;;;;;;8.65;100.00;100847.63;5016633;28;20030;-70
2022/11/28 09:19:32;;;;;;;160.23;35.03;;;;;;;8.69;100.00;100841.59;5028852;28;20026;-69
2022/11/28 09:22:00;;;;;;;164.23;34.08;;;;;;;8.75;100.00;100840.00;5015696;28;20037;-69
2022/11/28 09:24:28;;;;;;;157.82;33.40;;;;;;;8.72;100.00;100850.44;5030021;28;20026;-68
2022/11/28 09:26:56;;;;;;;140.63;30.00;;;;;;;8.81;100.00;100843.63;5027135;28;20022;-69
2022/11/28 09:29:24;;;;;;;138.68;30.95;;;;;;;8.81;100.00;100843.63;5010603;28;20065;-69
2022/11/28 09:31:52;;;;;;;130.95;30.75;;;;;;;8.82;100.00;100841.03;5013909;28;20034;-70
2022/11/28 09:34:20;;;;;;;128.38;31.05;;;;;;;8.82;100.00;100840.13;5027307;28;20022;-68
2022/11/28 09:36:49;;;;;;;140.85;31.27;;;;;;;8.86;100.00;100842.88;5030308;28;20493;-69
2022/11/28 09:39:16;;;;;;;148.65;32.00;;;;;;;8.86;100.00;100842.00;5018359;28;20030;-68
2022/11/28 09:41:48;;;;;;;138.02;28.83;;;;;;;8.84;100.00;100854.19;5011900;28;20494;-68
2022/11/28 09:44:41;;;;;;;121.63;28.00;;;;;;;8.93;100.00;100854.41;5015049;28;20022;-72
2022/11/28 09:47:29;;;;;;;113.40;26.70;;;;;;;8.90;100.00;100856.97;5038554;28;20079;-70
2022/11/28 09:49:59;;;;;;;118.03;27.45;;;;;;;8.90;100.00;100859.59;5041731;28;20284;-68
2022/11/28 09:52:32;;;;;;;99.18;26.15;;;;;;;8.98;100.00;100862.38;5043778;28;20033;-69
2022/11/28 09:55:18;;;;;;;102.72;25.95;;;;;;;8.95;100.00;100868.44;5034836;28;20022;-69
2022/11/28 09:57:49;;;;;;;99.95;25.33;;;;;;;9.02;100.00;100867.75;5031514;28;20029;-68
2022/11/28 10:00:45;;;;;;;95.18;26.02;;;;;;;9.04;100.00;100871.28;5030893;28;20057;-69
2022/11/28 10:03:24;;;;;;;89.00;24.33;;;;;;;9.06;100.00;100866.06;5017976;28;20486;-68
2022/11/28 10:06:00;;;;;;;96.35;26.08;;;;;;;9.03;100.00;100866.00;5013189;28;20083;-69
2022/11/28 10:09:03;;;;;;;99.75;26.55;;;;;;;9.05;100.00;100870.44;5018270;28;20116;-69
2022/11/28 10:12:02;;;;;;;92.25;26.25;;;;;;;9.17;100.00;100868.94;5030327;28;20457;-69
2022/11/28 10:15:04;;;;;;;94.15;25.92;;;;;;;9.08;100.00;100867.00;5031235;28;20032;-69
2022/11/28 10:17:50;;;;;;;73.90;24.02;;;;;;;9.07;100.00;100867.84;5030498;28;20026;-68
2022/11/28 10:20:27;;;;;;;82.10;25.02;;;;;;;9.09;100.00;100872.28;5013928;28;20419;-69
2022/11/28 10:23:09;;;;;;;89.03;25.23;;;;;;;9.15;100.00;100870.66;5027098;28;20031;-69
2022/11/28 10:25:46;;;;;;;86.78;25.08;;;;;;;9.27;100.00;100866.56;5032908;28;20374;-69
2022/11/28 10:28:47;;;;;;;87.47;24.08;;;;;;;9.22;100.00;100872.56;5015718;28;20069;-69
2022/11/28 10:31:19;;;;;;;84.03;26.17;;;;;;;9.15;100.00;100873.28;5016470;28;20478;-70
2022/11/28 10:34:03;;;;;;;82.97;25.70;;;;;;;9.18;100.00;100875.97;5010298;28;20041;-69
2022/11/28 10:36:50;;;;;;;82.82;26.27;;;;;;;9.12;100.00;100881.97;5012703;28;20103;-70
2022/11/28 10:39:16;;;;;;;85.68;26.20;;;;;;;9.18;100.00;100878.59;5012632;28;20053;-68
2022/11/28 10:42:12;;;;;;;89.18;25.40;;;;;;;9.14;100.00;100879.38;5014170;28;20072;-68
2022/11/28 10:44:49;;;;;;;85.88;25.25;;;;;;;9.15;100.00;100884.66;5014044;28;20357;-68
2022/11/28 10:47:38;;;;;;;82.70;26.27;;;;;;;9.19;100.00;100878.63;5017960;28;20040;-68
2022/11/28 10:50:16;;;;;;;88.70;27.20;;;;;;;9.28;100.00;100880.59;5014600;28;20495;-70
2022/11/28 10:53:00;;;;;;;88.03;28.00;;;;;;;9.31;100.00;100885.91;5013974;28;20049;-69
2022/11/28 10:55:55;;;;;;;89.85;28.88;;;;;;;9.43;100.00;100890.56;5012803;28;20096;-69
2022/11/28 10:58:35;;;;;;;99.70;28.30;;;;;;;9.49;100.00;100892.41;5013499;28;20073;-70
2022/11/28 11:01:01;;;;;;;93.18;28.80;;;;;;;9.55;100.00;100893.44;5012785;28;20117;-69
2022/11/28 11:03:30;;;;;;;87.85;28.92;;;;;;;9.63;100.00;100891.00;5015289;28;20052;-69
2022/11/28 11:05:56;;;;;;;94.28;28.40;;;;;;;9.69;100.00;100891.09;5026772;28;20049;-69
2022/11/28 11:08:27;;;;;;;77.78;25.83;;;;;;;9.76;100.00;100886.84;5015777;28;20108;-68
2022/11/28 11:11:03;;;;;;;75.50;27.17;;;;;;;9.61;100.00;100887.44;5018102;28;20033;-69
2022/11/28 11:13:32;;;;;;;83.72;26.70;;;;;;;9.57;100.00;100890.84;5012708;28;20088;-70
2022/11/28 11:15:59;;;;;;;74.47;24.75;;;;;;;9.65;100.00;100893.63;5013343;28;20426;-68
2022/11/28 11:18:27;;;;;;;73.75;25.73;;;;;;;9.72;100.00;100890.28;5013260;28;20061;-68
2022/11/28 11:21:11;;;;;;;77.57;25.52;;;;;;;9.77;100.00;100894.75;5014250;28;20037;-69
2022/11/28 11:23:36;;;;;;;77.53;26.38;;;;;;;9.67;100.00;100898.09;5012304;28;20366;-69
2022/11/28 11:26:02;;;;;;;71.85;25.63;;;;;;;9.73;100.00;100903.44;5013308;28;20029;-69